Terminal Aerodrome Forecast
Issued by NWS Corpus Christi, TX

Home | Current Version | Previous Version | Text Only | Print | Product List | Glossary On
Versions: 1 2 3 4 5 6 7 8 9 10 11 12 13 14 15 16 17
000
FTUS44 KCRP 280500
TAFCRP
TAF
KCRP 280520Z 2806/0106 04017G23KT 5SM -RA OVC009
      TEMPO 2806/2808 3SM -RA BR OVC006
     FM280800 05015KT 4SM -RA BR OVC006
     FM281400 05012KT 2SM -SHRA BR OVC004
     FM010100 03014KT 3SM -RA BR OVC006=

USA.gov is the U.S. government's official web portal to all federal, state and local government web resources and services.